Campanya meteocatpedra

Dades EMA Port de Barcelona - Bocana Sud

?
?
Resum diari 21:00 TU
Dades diàries de l'estació meteorològica
Ratxa màxima del vent (10 m) 35.3 km/h - 49º 2:10 TU

El tram horari està expressat en Temps Universal (TU). Cal sumar una hora en horari d'hivern i dues en horari d'estiu per passar a l'hora oficial.

Port de Barcelona - Bocana Sud

Metadades estació meteorol´gica
Municipi El Prat de Llobregat
Comarca Baix Llobregat
Altitud 3 m
Data alta 08.04.2015
Estat actual Operativa
Dades de període
Període
TU
VVM (10 m)
km/h
DVM (10 m)
graus
VVX (10 m)
km/h
00:00 - 00:30 18.0 59 25.2
00:30 - 01:00 19.1 50 27.7
01:00 - 01:30 22.7 46 33.1
01:30 - 02:00 23.0 48 32.0
02:00 - 02:30 27.0 49 35.3
02:30 - 03:00 24.8 48 35.3
03:00 - 03:30 22.7 47 32.0
03:30 - 04:00 22.3 48 31.0
04:00 - 04:30 22.7 56 31.7
04:30 - 05:00 22.3 54 32.8
05:00 - 05:30 16.9 55 23.8
05:30 - 06:00 17.3 73 21.2
06:00 - 06:30 14.4 69 18.4
06:30 - 07:00 13.3 64 17.6
07:00 - 07:30 14.0 51 19.4
07:30 - 08:00 15.8 45 22.3
08:00 - 08:30 15.5 46 21.2
08:30 - 09:00 13.3 44 19.4
09:00 - 09:30 13.7 47 19.8
09:30 - 10:00 13.3 49 19.1
10:00 - 10:30 13.0 47 17.6
10:30 - 11:00 14.4 63 20.5
11:00 - 11:30 16.2 72 22.0
11:30 - 12:00 16.2 79 20.2
12:00 - 12:30 18.0 91 22.0
12:30 - 13:00 19.1 89 25.2
13:00 - 13:30 18.0 82 21.6
13:30 - 14:00 16.6 83 20.5
14:00 - 14:30 16.2 80 20.9
14:30 - 15:00 15.1 96 20.5
15:00 - 15:30 17.3 94 21.6
15:30 - 16:00 16.6 87 21.6
16:00 - 16:30 16.2 77 21.6
16:30 - 17:00 16.9 67 22.7
17:00 - 17:30 16.2 50 24.1
17:30 - 18:00 15.8 50 25.6
18:00 - 18:30 17.3 43 24.1
18:30 - 19:00 18.0 47 25.2
19:00 - 19:30 17.6 51 24.5
19:30 - 20:00 14.0 44 21.6
20:00 - 20:30 12.6 34 18.4
20:30 - 21:00 13.7 28 17.6
21:00 - 21:30 10.8 37 16.2

Les dades en taronja només han passat un control de qualitat automàtic. Resta pendent la seva validació definitiva.